sensor_id;sensor_type;location;lat;lon;timestamp;P1;durP1;ratioP1;P2;durP2;ratioP2
5718;SDS011;2884;47.734;9.244;2024-02-26T00:00:31;1.00;;;0.90;;
5718;SDS011;2884;47.734;9.244;2024-02-26T00:02:57;1.30;;;0.80;;
5718;SDS011;2884;47.734;9.244;2024-02-26T00:05:23;0.80;;;0.80;;
5718;SDS011;2884;47.734;9.244;2024-02-26T00:07:48;1.10;;;1.00;;
5718;SDS011;2884;47.734;9.244;2024-02-26T00:10:14;0.80;;;0.80;;
5718;SDS011;2884;47.734;9.244;2024-02-26T00:12:40;1.30;;;1.00;;
5718;SDS011;2884;47.734;9.244;2024-02-26T00:15:06;1.30;;;0.90;;
5718;SDS011;2884;47.734;9.244;2024-02-26T00:17:32;2.23;;;0.70;;
5718;SDS011;2884;47.734;9.244;2024-02-26T00:19:58;1.40;;;0.90;;
5718;SDS011;2884;47.734;9.244;2024-02-26T00:22:25;0.83;;;0.83;;
5718;SDS011;2884;47.734;9.244;2024-02-26T00:24:51;1.20;;;0.90;;
5718;SDS011;2884;47.734;9.244;2024-02-26T00:27:17;0.80;;;0.80;;
5718;SDS011;2884;47.734;9.244;2024-02-26T00:29:42;0.70;;;0.60;;
5718;SDS011;2884;47.734;9.244;2024-02-26T00:32:08;1.63;;;0.80;;
5718;SDS011;2884;47.734;9.244;2024-02-26T00:34:33;0.83;;;0.83;;
5718;SDS011;2884;47.734;9.244;2024-02-26T00:36:59;1.00;;;0.80;;
5718;SDS011;2884;47.734;9.244;2024-02-26T00:39:24;1.10;;;1.00;;
5718;SDS011;2884;47.734;9.244;2024-02-26T00:41:50;0.80;;;0.80;;
5718;SDS011;2884;47.734;9.244;2024-02-26T00:44:17;0.80;;;0.70;;
5718;SDS011;2884;47.734;9.244;2024-02-26T00:46:42;0.70;;;0.70;;
5718;SDS011;2884;47.734;9.244;2024-02-26T00:49:08;1.23;;;0.90;;
5718;SDS011;2884;47.734;9.244;2024-02-26T00:51:33;1.03;;;0.90;;
5718;SDS011;2884;47.734;9.244;2024-02-26T00:53:59;0.80;;;0.80;;
5718;SDS011;2884;47.734;9.244;2024-02-26T00:56:27;1.43;;;0.80;;
5718;SDS011;2884;47.734;9.244;2024-02-26T00:58:52;1.67;;;1.00;;
5718;SDS011;2884;47.734;9.244;2024-02-26T01:01:18;0.80;;;0.80;;
5718;SDS011;2884;47.734;9.244;2024-02-26T01:03:43;0.80;;;0.70;;
5718;SDS011;2884;47.734;9.244;2024-02-26T01:06:09;1.40;;;0.97;;
5718;SDS011;2884;47.734;9.244;2024-02-26T01:08:34;0.80;;;0.80;;
5718;SDS011;2884;47.734;9.244;2024-02-26T01:11:01;1.27;;;1.17;;
5718;SDS011;2884;47.734;9.244;2024-02-26T01:13:26;0.87;;;0.83;;
5718;SDS011;2884;47.734;9.244;2024-02-26T01:15:52;1.10;;;1.00;;
5718;SDS011;2884;47.734;9.244;2024-02-26T01:18:18;0.90;;;0.90;;
5718;SDS011;2884;47.734;9.244;2024-02-26T01:20:43;1.50;;;1.00;;
5718;SDS011;2884;47.734;9.244;2024-02-26T01:23:09;6.57;;;1.13;;
5718;SDS011;2884;47.734;9.244;2024-02-26T01:25:34;1.60;;;1.30;;
5718;SDS011;2884;47.734;9.244;2024-02-26T01:28:00;0.80;;;0.80;;
5718;SDS011;2884;47.734;9.244;2024-02-26T01:30:25;1.47;;;0.93;;
5718;SDS011;2884;47.734;9.244;2024-02-26T01:32:51;1.00;;;1.00;;
5718;SDS011;2884;47.734;9.244;2024-02-26T01:35:16;1.50;;;1.10;;
5718;SDS011;2884;47.734;9.244;2024-02-26T01:37:42;1.30;;;1.20;;
5718;SDS011;2884;47.734;9.244;2024-02-26T01:40:08;1.33;;;1.00;;
5718;SDS011;2884;47.734;9.244;2024-02-26T01:42:34;1.33;;;0.90;;
5718;SDS011;2884;47.734;9.244;2024-02-26T01:45:00;1.70;;;1.53;;
5718;SDS011;2884;47.734;9.244;2024-02-26T01:47:26;1.20;;;1.10;;
5718;SDS011;2884;47.734;9.244;2024-02-26T01:49:53;2.33;;;1.13;;
5718;SDS011;2884;47.734;9.244;2024-02-26T01:52:18;1.63;;;1.53;;
5718;SDS011;2884;47.734;9.244;2024-02-26T01:54:44;1.00;;;0.80;;
5718;SDS011;2884;47.734;9.244;2024-02-26T01:57:10;0.90;;;0.90;;
5718;SDS011;2884;47.734;9.244;2024-02-26T01:59:36;1.70;;;1.40;;
5718;SDS011;2884;47.734;9.244;2024-02-26T02:02:03;1.30;;;1.20;;
5718;SDS011;2884;47.734;9.244;2024-02-26T02:04:30;1.23;;;1.10;;
5718;SDS011;2884;47.734;9.244;2024-02-26T02:06:56;7.00;;;1.40;;
5718;SDS011;2884;47.734;9.244;2024-02-26T02:09:22;2.97;;;1.23;;
5718;SDS011;2884;47.734;9.244;2024-02-26T02:11:48;2.50;;;1.50;;
5718;SDS011;2884;47.734;9.244;2024-02-26T02:14:14;2.10;;;1.40;;
5718;SDS011;2884;47.734;9.244;2024-02-26T02:16:40;2.77;;;1.70;;
5718;SDS011;2884;47.734;9.244;2024-02-26T02:19:05;2.70;;;1.80;;
5718;SDS011;2884;47.734;9.244;2024-02-26T02:21:31;2.87;;;1.50;;
5718;SDS011;2884;47.734;9.244;2024-02-26T02:23:56;2.43;;;1.93;;
5718;SDS011;2884;47.734;9.244;2024-02-26T02:26:22;3.20;;;2.23;;
5718;SDS011;2884;47.734;9.244;2024-02-26T02:28:47;2.10;;;1.67;;
5718;SDS011;2884;47.734;9.244;2024-02-26T02:31:14;2.70;;;1.60;;
5718;SDS011;2884;47.734;9.244;2024-02-26T02:33:40;1.93;;;1.70;;
5718;SDS011;2884;47.734;9.244;2024-02-26T02:36:06;3.03;;;1.83;;
5718;SDS011;2884;47.734;9.244;2024-02-26T02:38:38;2.57;;;1.63;;
5718;SDS011;2884;47.734;9.244;2024-02-26T02:41:15;2.70;;;1.63;;
5718;SDS011;2884;47.734;9.244;2024-02-26T02:43:40;1.60;;;1.43;;
5718;SDS011;2884;47.734;9.244;2024-02-26T02:46:06;4.27;;;1.87;;
5718;SDS011;2884;47.734;9.244;2024-02-26T02:48:32;2.07;;;1.63;;
5718;SDS011;2884;47.734;9.244;2024-02-26T02:50:58;3.90;;;1.60;;
5718;SDS011;2884;47.734;9.244;2024-02-26T02:53:23;2.27;;;1.60;;
5718;SDS011;2884;47.734;9.244;2024-02-26T02:55:49;1.97;;;1.70;;
5718;SDS011;2884;47.734;9.244;2024-02-26T02:58:14;1.50;;;1.40;;
5718;SDS011;2884;47.734;9.244;2024-02-26T03:00:40;2.03;;;1.70;;
5718;SDS011;2884;47.734;9.244;2024-02-26T03:03:05;1.67;;;1.57;;
5718;SDS011;2884;47.734;9.244;2024-02-26T03:05:31;2.03;;;1.90;;
5718;SDS011;2884;47.734;9.244;2024-02-26T03:07:57;3.50;;;2.00;;
5718;SDS011;2884;47.734;9.244;2024-02-26T03:10:23;3.00;;;1.50;;
5718;SDS011;2884;47.734;9.244;2024-02-26T03:12:49;2.77;;;2.10;;
5718;SDS011;2884;47.734;9.244;2024-02-26T03:15:15;5.70;;;1.83;;
5718;SDS011;2884;47.734;9.244;2024-02-26T03:17:40;2.10;;;1.57;;
5718;SDS011;2884;47.734;9.244;2024-02-26T03:20:06;1.70;;;1.60;;
5718;SDS011;2884;47.734;9.244;2024-02-26T03:22:33;1.87;;;1.67;;
5718;SDS011;2884;47.734;9.244;2024-02-26T03:24:59;2.50;;;1.50;;
5718;SDS011;2884;47.734;9.244;2024-02-26T03:27:24;3.13;;;1.30;;
5718;SDS011;2884;47.734;9.244;2024-02-26T03:29:50;1.43;;;1.30;;
5718;SDS011;2884;47.734;9.244;2024-02-26T03:32:16;1.93;;;1.70;;
5718;SDS011;2884;47.734;9.244;2024-02-26T03:34:41;2.03;;;1.80;;
5718;SDS011;2884;47.734;9.244;2024-02-26T03:37:07;1.40;;;1.30;;
5718;SDS011;2884;47.734;9.244;2024-02-26T03:39:35;1.97;;;1.30;;
5718;SDS011;2884;47.734;9.244;2024-02-26T03:42:01;2.30;;;1.37;;
5718;SDS011;2884;47.734;9.244;2024-02-26T03:44:27;1.27;;;1.17;;
5718;SDS011;2884;47.734;9.244;2024-02-26T03:46:52;1.43;;;1.30;;
5718;SDS011;2884;47.734;9.244;2024-02-26T03:49:18;2.83;;;1.03;;
5718;SDS011;2884;47.734;9.244;2024-02-26T03:51:44;1.47;;;1.00;;
5718;SDS011;2884;47.734;9.244;2024-02-26T03:54:09;1.40;;;1.00;;
5718;SDS011;2884;47.734;9.244;2024-02-26T03:56:35;1.17;;;1.07;;
5718;SDS011;2884;47.734;9.244;2024-02-26T03:59:00;3.03;;;1.20;;
5718;SDS011;2884;47.734;9.244;2024-02-26T04:01:27;0.80;;;0.80;;
5718;SDS011;2884;47.734;9.244;2024-02-26T04:03:54;1.27;;;1.20;;
5718;SDS011;2884;47.734;9.244;2024-02-26T04:06:20;1.63;;;1.30;;
5718;SDS011;2884;47.734;9.244;2024-02-26T04:08:48;2.20;;;1.30;;
5718;SDS011;2884;47.734;9.244;2024-02-26T04:11:14;2.30;;;1.47;;
5718;SDS011;2884;47.734;9.244;2024-02-26T04:13:43;1.20;;;1.10;;
5718;SDS011;2884;47.734;9.244;2024-02-26T04:16:11;1.10;;;1.00;;
5718;SDS011;2884;47.734;9.244;2024-02-26T04:18:37;1.27;;;1.20;;
5718;SDS011;2884;47.734;9.244;2024-02-26T04:21:03;1.60;;;1.10;;
5718;SDS011;2884;47.734;9.244;2024-02-26T04:23:30;1.30;;;1.20;;
5718;SDS011;2884;47.734;9.244;2024-02-26T04:25:56;1.43;;;1.00;;
5718;SDS011;2884;47.734;9.244;2024-02-26T04:28:21;1.30;;;1.00;;
5718;SDS011;2884;47.734;9.244;2024-02-26T04:30:47;1.40;;;1.30;;
5718;SDS011;2884;47.734;9.244;2024-02-26T04:33:13;1.93;;;1.30;;
5718;SDS011;2884;47.734;9.244;2024-02-26T04:35:39;1.50;;;1.40;;
5718;SDS011;2884;47.734;9.244;2024-02-26T04:38:04;2.80;;;1.30;;
5718;SDS011;2884;47.734;9.244;2024-02-26T04:40:30;0.90;;;0.90;;
5718;SDS011;2884;47.734;9.244;2024-02-26T04:42:56;1.73;;;1.63;;
5718;SDS011;2884;47.734;9.244;2024-02-26T04:45:40;1.80;;;1.70;;
5718;SDS011;2884;47.734;9.244;2024-02-26T04:48:06;1.63;;;1.27;;
5718;SDS011;2884;47.734;9.244;2024-02-26T04:50:32;1.23;;;1.13;;
5718;SDS011;2884;47.734;9.244;2024-02-26T04:52:57;1.40;;;1.30;;
5718;SDS011;2884;47.734;9.244;2024-02-26T04:55:23;2.00;;;1.50;;
5718;SDS011;2884;47.734;9.244;2024-02-26T04:57:49;3.60;;;1.70;;
5718;SDS011;2884;47.734;9.244;2024-02-26T05:00:14;2.53;;;1.90;;
5718;SDS011;2884;47.734;9.244;2024-02-26T05:02:40;2.07;;;1.60;;
5718;SDS011;2884;47.734;9.244;2024-02-26T05:05:06;3.00;;;1.70;;
5718;SDS011;2884;47.734;9.244;2024-02-26T05:07:31;2.10;;;1.60;;
5718;SDS011;2884;47.734;9.244;2024-02-26T05:09:57;2.20;;;1.50;;
5718;SDS011;2884;47.734;9.244;2024-02-26T05:12:23;2.07;;;1.53;;
5718;SDS011;2884;47.734;9.244;2024-02-26T05:14:48;1.50;;;1.37;;
5718;SDS011;2884;47.734;9.244;2024-02-26T05:17:14;1.13;;;1.00;;
5718;SDS011;2884;47.734;9.244;2024-02-26T05:19:40;2.80;;;1.73;;
5718;SDS011;2884;47.734;9.244;2024-02-26T05:22:05;1.27;;;1.17;;
5718;SDS011;2884;47.734;9.244;2024-02-26T05:24:31;2.67;;;1.60;;
5718;SDS011;2884;47.734;9.244;2024-02-26T05:26:56;2.40;;;2.00;;
5718;SDS011;2884;47.734;9.244;2024-02-26T05:29:22;1.90;;;1.77;;
5718;SDS011;2884;47.734;9.244;2024-02-26T05:31:47;1.90;;;1.67;;
5718;SDS011;2884;47.734;9.244;2024-02-26T05:34:13;2.63;;;1.97;;
5718;SDS011;2884;47.734;9.244;2024-02-26T05:36:39;2.43;;;1.40;;
5718;SDS011;2884;47.734;9.244;2024-02-26T05:39:04;4.23;;;1.97;;
5718;SDS011;2884;47.734;9.244;2024-02-26T05:41:30;3.43;;;2.40;;
5718;SDS011;2884;47.734;9.244;2024-02-26T05:43:55;1.63;;;1.53;;
5718;SDS011;2884;47.734;9.244;2024-02-26T05:46:21;2.43;;;1.87;;
5718;SDS011;2884;47.734;9.244;2024-02-26T05:48:47;2.60;;;2.10;;
5718;SDS011;2884;47.734;9.244;2024-02-26T05:51:14;4.10;;;2.27;;
5718;SDS011;2884;47.734;9.244;2024-02-26T05:53:40;3.87;;;1.90;;
5718;SDS011;2884;47.734;9.244;2024-02-26T05:56:06;1.20;;;1.20;;
5718;SDS011;2884;47.734;9.244;2024-02-26T05:58:32;1.90;;;1.70;;
5718;SDS011;2884;47.734;9.244;2024-02-26T06:00:57;5.23;;;1.50;;
5718;SDS011;2884;47.734;9.244;2024-02-26T06:03:23;1.80;;;1.60;;
5718;SDS011;2884;47.734;9.244;2024-02-26T06:05:48;1.83;;;1.73;;
5718;SDS011;2884;47.734;9.244;2024-02-26T06:08:14;1.57;;;1.47;;
5718;SDS011;2884;47.734;9.244;2024-02-26T06:10:39;4.80;;;1.70;;
5718;SDS011;2884;47.734;9.244;2024-02-26T06:13:05;1.23;;;1.13;;
5718;SDS011;2884;47.734;9.244;2024-02-26T06:15:30;2.50;;;1.40;;
5718;SDS011;2884;47.734;9.244;2024-02-26T06:17:56;1.87;;;1.70;;
5718;SDS011;2884;47.734;9.244;2024-02-26T06:20:21;2.20;;;1.93;;
5718;SDS011;2884;47.734;9.244;2024-02-26T06:22:47;1.40;;;1.10;;
5718;SDS011;2884;47.734;9.244;2024-02-26T06:25:12;6.73;;;1.33;;
5718;SDS011;2884;47.734;9.244;2024-02-26T06:27:38;2.23;;;1.60;;
5718;SDS011;2884;47.734;9.244;2024-02-26T06:30:04;1.33;;;1.23;;
5718;SDS011;2884;47.734;9.244;2024-02-26T06:32:30;2.03;;;1.83;;
5718;SDS011;2884;47.734;9.244;2024-02-26T06:34:56;2.37;;;2.17;;
5718;SDS011;2884;47.734;9.244;2024-02-26T06:40:49;2.73;;;1.60;;
5718;SDS011;2884;47.734;9.244;2024-02-26T06:43:15;1.70;;;1.27;;
5718;SDS011;2884;47.734;9.244;2024-02-26T06:45:40;1.77;;;1.67;;
5718;SDS011;2884;47.734;9.244;2024-02-26T06:48:06;3.73;;;1.77;;
5718;SDS011;2884;47.734;9.244;2024-02-26T06:50:32;2.23;;;2.03;;
5718;SDS011;2884;47.734;9.244;2024-02-26T06:52:57;1.80;;;1.70;;
5718;SDS011;2884;47.734;9.244;2024-02-26T06:55:23;1.60;;;1.50;;
5718;SDS011;2884;47.734;9.244;2024-02-26T06:57:48;2.50;;;1.97;;
5718;SDS011;2884;47.734;9.244;2024-02-26T07:00:14;3.37;;;2.27;;
5718;SDS011;2884;47.734;9.244;2024-02-26T07:02:42;8.00;;;4.40;;
5718;SDS011;2884;47.734;9.244;2024-02-26T07:05:08;6.33;;;4.90;;
5718;SDS011;2884;47.734;9.244;2024-02-26T07:07:34;3.80;;;3.27;;
5718;SDS011;2884;47.734;9.244;2024-02-26T07:09:59;2.27;;;2.07;;
5718;SDS011;2884;47.734;9.244;2024-02-26T07:12:29;2.40;;;2.20;;
5718;SDS011;2884;47.734;9.244;2024-02-26T07:14:55;4.93;;;2.17;;
5718;SDS011;2884;47.734;9.244;2024-02-26T07:17:20;4.37;;;2.17;;
5718;SDS011;2884;47.734;9.244;2024-02-26T07:19:46;2.53;;;2.10;;
5718;SDS011;2884;47.734;9.244;2024-02-26T07:22:12;4.27;;;2.67;;
5718;SDS011;2884;47.734;9.244;2024-02-26T07:24:37;4.40;;;3.03;;
5718;SDS011;2884;47.734;9.244;2024-02-26T07:27:03;7.07;;;3.80;;
5718;SDS011;2884;47.734;9.244;2024-02-26T07:29:29;10.30;;;3.60;;
5718;SDS011;2884;47.734;9.244;2024-02-26T07:31:54;5.50;;;3.13;;
5718;SDS011;2884;47.734;9.244;2024-02-26T07:34:20;2.83;;;1.90;;
5718;SDS011;2884;47.734;9.244;2024-02-26T07:36:48;2.43;;;1.73;;
5718;SDS011;2884;47.734;9.244;2024-02-26T07:39:13;4.33;;;1.63;;
5718;SDS011;2884;47.734;9.244;2024-02-26T07:41:57;1.87;;;1.60;;
5718;SDS011;2884;47.734;9.244;2024-02-26T07:44:23;2.20;;;2.07;;
5718;SDS011;2884;47.734;9.244;2024-02-26T07:46:49;1.90;;;1.80;;
5718;SDS011;2884;47.734;9.244;2024-02-26T07:49:14;4.93;;;2.40;;
5718;SDS011;2884;47.734;9.244;2024-02-26T07:51:40;2.20;;;1.60;;
5718;SDS011;2884;47.734;9.244;2024-02-26T07:54:05;3.37;;;2.50;;
5718;SDS011;2884;47.734;9.244;2024-02-26T07:56:31;2.50;;;2.30;;
5718;SDS011;2884;47.734;9.244;2024-02-26T07:58:57;2.40;;;2.20;;
5718;SDS011;2884;47.734;9.244;2024-02-26T08:01:22;9.03;;;2.67;;
5718;SDS011;2884;47.734;9.244;2024-02-26T08:03:48;4.70;;;2.77;;
5718;SDS011;2884;47.734;9.244;2024-02-26T08:06:13;2.73;;;2.37;;
5718;SDS011;2884;47.734;9.244;2024-02-26T08:08:39;4.30;;;2.37;;
5718;SDS011;2884;47.734;9.244;2024-02-26T08:11:04;4.73;;;2.80;;
5718;SDS011;2884;47.734;9.244;2024-02-26T08:13:30;3.50;;;2.50;;
5718;SDS011;2884;47.734;9.244;2024-02-26T08:16:01;2.20;;;2.00;;
5718;SDS011;2884;47.734;9.244;2024-02-26T08:18:27;3.00;;;2.20;;
5718;SDS011;2884;47.734;9.244;2024-02-26T08:20:53;3.30;;;2.20;;
5718;SDS011;2884;47.734;9.244;2024-02-26T08:23:18;3.33;;;2.40;;
5718;SDS011;2884;47.734;9.244;2024-02-26T08:25:44;2.50;;;2.20;;
5718;SDS011;2884;47.734;9.244;2024-02-26T08:28:09;2.40;;;2.20;;
5718;SDS011;2884;47.734;9.244;2024-02-26T08:30:38;2.90;;;2.40;;
5718;SDS011;2884;47.734;9.244;2024-02-26T08:33:03;3.70;;;2.17;;
5718;SDS011;2884;47.734;9.244;2024-02-26T08:35:29;3.27;;;2.27;;
5718;SDS011;2884;47.734;9.244;2024-02-26T08:37:55;4.20;;;2.10;;
5718;SDS011;2884;47.734;9.244;2024-02-26T08:40:21;3.33;;;1.90;;
5718;SDS011;2884;47.734;9.244;2024-02-26T08:42:47;3.33;;;2.37;;
5718;SDS011;2884;47.734;9.244;2024-02-26T08:45:12;2.80;;;2.20;;
5718;SDS011;2884;47.734;9.244;2024-02-26T08:47:38;2.53;;;2.17;;
5718;SDS011;2884;47.734;9.244;2024-02-26T08:50:04;4.80;;;2.30;;
5718;SDS011;2884;47.734;9.244;2024-02-26T08:52:30;3.70;;;2.70;;
5718;SDS011;2884;47.734;9.244;2024-02-26T08:54:55;2.40;;;2.20;;
5718;SDS011;2884;47.734;9.244;2024-02-26T08:57:22;2.10;;;1.90;;
5718;SDS011;2884;47.734;9.244;2024-02-26T08:59:47;4.27;;;2.20;;
5718;SDS011;2884;47.734;9.244;2024-02-26T09:02:13;1.90;;;1.80;;
5718;SDS011;2884;47.734;9.244;2024-02-26T09:04:39;2.63;;;1.87;;
5718;SDS011;2884;47.734;9.244;2024-02-26T09:07:04;3.47;;;2.17;;
5718;SDS011;2884;47.734;9.244;2024-02-26T09:09:29;3.20;;;2.20;;
5718;SDS011;2884;47.734;9.244;2024-02-26T09:11:55;5.77;;;3.00;;
5718;SDS011;2884;47.734;9.244;2024-02-26T09:14:21;5.30;;;2.33;;
5718;SDS011;2884;47.734;9.244;2024-02-26T09:16:47;2.67;;;1.80;;
5718;SDS011;2884;47.734;9.244;2024-02-26T09:19:16;3.33;;;1.93;;
5718;SDS011;2884;47.734;9.244;2024-02-26T09:21:45;9.20;;;3.67;;
5718;SDS011;2884;47.734;9.244;2024-02-26T09:24:13;3.20;;;2.43;;
5718;SDS011;2884;47.734;9.244;2024-02-26T09:26:40;3.50;;;2.63;;
5718;SDS011;2884;47.734;9.244;2024-02-26T09:29:05;2.77;;;1.90;;
5718;SDS011;2884;47.734;9.244;2024-02-26T09:31:31;2.60;;;1.70;;
5718;SDS011;2884;47.734;9.244;2024-02-26T09:33:57;3.60;;;2.13;;
5718;SDS011;2884;47.734;9.244;2024-02-26T09:36:22;2.60;;;2.40;;
5718;SDS011;2884;47.734;9.244;2024-02-26T09:38:48;1.70;;;1.60;;
5718;SDS011;2884;47.734;9.244;2024-02-26T09:41:14;3.20;;;2.20;;
5718;SDS011;2884;47.734;9.244;2024-02-26T09:43:44;2.03;;;1.93;;
5718;SDS011;2884;47.734;9.244;2024-02-26T09:46:11;2.43;;;2.23;;
5718;SDS011;2884;47.734;9.244;2024-02-26T09:48:37;2.60;;;1.97;;
5718;SDS011;2884;47.734;9.244;2024-02-26T09:51:03;3.03;;;2.50;;
5718;SDS011;2884;47.734;9.244;2024-02-26T09:53:29;2.87;;;2.30;;
5718;SDS011;2884;47.734;9.244;2024-02-26T09:55:59;2.93;;;2.00;;
5718;SDS011;2884;47.734;9.244;2024-02-26T09:58:25;3.53;;;2.30;;
5718;SDS011;2884;47.734;9.244;2024-02-26T10:00:53;4.60;;;2.57;;
5718;SDS011;2884;47.734;9.244;2024-02-26T10:03:28;2.37;;;2.13;;
5718;SDS011;2884;47.734;9.244;2024-02-26T10:05:56;3.70;;;2.70;;
5718;SDS011;2884;47.734;9.244;2024-02-26T10:08:23;4.40;;;2.40;;
5718;SDS011;2884;47.734;9.244;2024-02-26T10:10:49;2.47;;;1.93;;
5718;SDS011;2884;47.734;9.244;2024-02-26T10:13:15;4.13;;;2.33;;
5718;SDS011;2884;47.734;9.244;2024-02-26T10:15:41;4.57;;;2.47;;
5718;SDS011;2884;47.734;9.244;2024-02-26T10:18:06;2.20;;;2.00;;
5718;SDS011;2884;47.734;9.244;2024-02-26T10:20:32;4.20;;;3.00;;
5718;SDS011;2884;47.734;9.244;2024-02-26T10:22:58;4.13;;;2.80;;
5718;SDS011;2884;47.734;9.244;2024-02-26T10:25:27;4.90;;;2.50;;
5718;SDS011;2884;47.734;9.244;2024-02-26T10:27:53;8.63;;;1.93;;
5718;SDS011;2884;47.734;9.244;2024-02-26T10:30:19;2.50;;;2.30;;
5718;SDS011;2884;47.734;9.244;2024-02-26T10:32:46;2.20;;;1.97;;
5718;SDS011;2884;47.734;9.244;2024-02-26T10:35:16;6.13;;;2.43;;
5718;SDS011;2884;47.734;9.244;2024-02-26T10:37:43;2.50;;;2.03;;
5718;SDS011;2884;47.734;9.244;2024-02-26T10:40:12;3.17;;;2.20;;
5718;SDS011;2884;47.734;9.244;2024-02-26T10:42:39;4.20;;;2.20;;
5718;SDS011;2884;47.734;9.244;2024-02-26T10:45:06;3.37;;;2.10;;
5718;SDS011;2884;47.734;9.244;2024-02-26T10:47:34;3.57;;;2.30;;
5718;SDS011;2884;47.734;9.244;2024-02-26T10:50:03;5.70;;;2.33;;
5718;SDS011;2884;47.734;9.244;2024-02-26T10:52:35;7.57;;;2.00;;
5718;SDS011;2884;47.734;9.244;2024-02-26T10:55:02;2.90;;;1.97;;
5718;SDS011;2884;47.734;9.244;2024-02-26T10:57:29;4.00;;;2.00;;
5718;SDS011;2884;47.734;9.244;2024-02-26T10:59:57;2.50;;;2.10;;
5718;SDS011;2884;47.734;9.244;2024-02-26T11:02:23;4.07;;;2.60;;
5718;SDS011;2884;47.734;9.244;2024-02-26T11:04:49;2.30;;;2.10;;
5718;SDS011;2884;47.734;9.244;2024-02-26T11:07:15;3.10;;;2.30;;
5718;SDS011;2884;47.734;9.244;2024-02-26T11:09:41;2.40;;;1.93;;
5718;SDS011;2884;47.734;9.244;2024-02-26T11:12:10;4.07;;;2.50;;
5718;SDS011;2884;47.734;9.244;2024-02-26T11:14:41;4.47;;;2.87;;
5718;SDS011;2884;47.734;9.244;2024-02-26T11:17:08;4.37;;;3.40;;
5718;SDS011;2884;47.734;9.244;2024-02-26T11:19:35;2.53;;;2.30;;
5718;SDS011;2884;47.734;9.244;2024-02-26T11:22:01;2.60;;;2.40;;
5718;SDS011;2884;47.734;9.244;2024-02-26T11:24:27;2.57;;;2.37;;
5718;SDS011;2884;47.734;9.244;2024-02-26T11:26:57;3.80;;;2.53;;
5718;SDS011;2884;47.734;9.244;2024-02-26T11:29:29;2.50;;;2.27;;
5718;SDS011;2884;47.734;9.244;2024-02-26T11:31:58;2.80;;;2.30;;
5718;SDS011;2884;47.734;9.244;2024-02-26T11:34:25;8.10;;;2.30;;
5718;SDS011;2884;47.734;9.244;2024-02-26T11:36:51;2.90;;;2.27;;
5718;SDS011;2884;47.734;9.244;2024-02-26T11:39:17;2.07;;;1.83;;
5718;SDS011;2884;47.734;9.244;2024-02-26T11:41:43;4.47;;;2.83;;
5718;SDS011;2884;47.734;9.244;2024-02-26T11:44:09;4.00;;;2.13;;
5718;SDS011;2884;47.734;9.244;2024-02-26T11:46:41;3.00;;;2.27;;
5718;SDS011;2884;47.734;9.244;2024-02-26T11:49:30;2.93;;;2.63;;
5718;SDS011;2884;47.734;9.244;2024-02-26T11:51:54;3.20;;;2.70;;
5718;SDS011;2884;47.734;9.244;2024-02-26T11:57:25;2.70;;;2.23;;
5718;SDS011;2884;47.734;9.244;2024-02-26T12:02:39;2.70;;;2.33;;
5718;SDS011;2884;47.734;9.244;2024-02-26T12:05:18;4.63;;;2.73;;
5718;SDS011;2884;47.734;9.244;2024-02-26T12:07:46;4.33;;;2.20;;
5718;SDS011;2884;47.734;9.244;2024-02-26T12:10:14;2.70;;;2.30;;
5718;SDS011;2884;47.734;9.244;2024-02-26T12:12:41;2.50;;;2.30;;
5718;SDS011;2884;47.734;9.244;2024-02-26T12:15:07;3.80;;;2.40;;
5718;SDS011;2884;47.734;9.244;2024-02-26T12:17:33;2.43;;;2.23;;
5718;SDS011;2884;47.734;9.244;2024-02-26T12:20:09;2.53;;;1.80;;
5718;SDS011;2884;47.734;9.244;2024-02-26T12:22:36;2.77;;;1.90;;
5718;SDS011;2884;47.734;9.244;2024-02-26T12:25:04;5.53;;;2.13;;
5718;SDS011;2884;47.734;9.244;2024-02-26T12:27:30;4.60;;;2.00;;
5718;SDS011;2884;47.734;9.244;2024-02-26T12:29:56;2.63;;;2.43;;
5718;SDS011;2884;47.734;9.244;2024-02-26T12:32:22;2.10;;;1.73;;
5718;SDS011;2884;47.734;9.244;2024-02-26T12:34:48;3.43;;;2.77;;
5718;SDS011;2884;47.734;9.244;2024-02-26T12:37:15;4.50;;;2.53;;
5718;SDS011;2884;47.734;9.244;2024-02-26T12:39:40;5.07;;;2.97;;
5718;SDS011;2884;47.734;9.244;2024-02-26T12:42:06;4.80;;;3.30;;
5718;SDS011;2884;47.734;9.244;2024-02-26T12:44:32;3.40;;;2.87;;
5718;SDS011;2884;47.734;9.244;2024-02-26T12:47:01;5.67;;;3.33;;
5718;SDS011;2884;47.734;9.244;2024-02-26T12:49:30;4.57;;;3.23;;
5718;SDS011;2884;47.734;9.244;2024-02-26T12:51:56;4.17;;;3.00;;
5718;SDS011;2884;47.734;9.244;2024-02-26T12:54:30;14.70;;;5.23;;
5718;SDS011;2884;47.734;9.244;2024-02-26T12:57:00;4.20;;;3.00;;
5718;SDS011;2884;47.734;9.244;2024-02-26T12:59:27;3.53;;;3.23;;
5718;SDS011;2884;47.734;9.244;2024-02-26T13:01:52;9.10;;;2.87;;
5718;SDS011;2884;47.734;9.244;2024-02-26T13:04:18;3.00;;;2.63;;
5718;SDS011;2884;47.734;9.244;2024-02-26T13:06:44;8.13;;;3.20;;
5718;SDS011;2884;47.734;9.244;2024-02-26T13:09:12;2.70;;;2.33;;
5718;SDS011;2884;47.734;9.244;2024-02-26T13:11:39;2.60;;;2.40;;
5718;SDS011;2884;47.734;9.244;2024-02-26T13:14:05;4.63;;;2.30;;
5718;SDS011;2884;47.734;9.244;2024-02-26T13:16:31;3.10;;;2.23;;
5718;SDS011;2884;47.734;9.244;2024-02-26T13:19:08;2.63;;;2.40;;
5718;SDS011;2884;47.734;9.244;2024-02-26T13:21:35;4.20;;;2.57;;
5718;SDS011;2884;47.734;9.244;2024-02-26T13:24:01;4.93;;;1.93;;
5718;SDS011;2884;47.734;9.244;2024-02-26T13:26:26;2.30;;;2.10;;
5718;SDS011;2884;47.734;9.244;2024-02-26T13:29:01;2.37;;;2.17;;
5718;SDS011;2884;47.734;9.244;2024-02-26T13:31:28;3.13;;;2.10;;
5718;SDS011;2884;47.734;9.244;2024-02-26T13:33:54;3.30;;;2.20;;
5718;SDS011;2884;47.734;9.244;2024-02-26T13:36:21;2.63;;;2.43;;
5718;SDS011;2884;47.734;9.244;2024-02-26T13:38:51;3.10;;;2.30;;
5718;SDS011;2884;47.734;9.244;2024-02-26T13:41:18;3.53;;;2.07;;
5718;SDS011;2884;47.734;9.244;2024-02-26T13:43:43;2.63;;;2.10;;
5718;SDS011;2884;47.734;9.244;2024-02-26T13:46:10;3.33;;;2.10;;
5718;SDS011;2884;47.734;9.244;2024-02-26T13:48:37;2.03;;;1.87;;
5718;SDS011;2884;47.734;9.244;2024-02-26T13:51:03;2.33;;;1.90;;
5718;SDS011;2884;47.734;9.244;2024-02-26T13:53:29;2.13;;;1.90;;
5718;SDS011;2884;47.734;9.244;2024-02-26T13:55:55;5.53;;;2.43;;
5718;SDS011;2884;47.734;9.244;2024-02-26T13:58:20;3.77;;;2.17;;
5718;SDS011;2884;47.734;9.244;2024-02-26T14:00:49;4.20;;;2.47;;
5718;SDS011;2884;47.734;9.244;2024-02-26T14:03:14;2.60;;;2.40;;
5718;SDS011;2884;47.734;9.244;2024-02-26T14:05:41;3.83;;;2.77;;
5718;SDS011;2884;47.734;9.244;2024-02-26T14:08:07;6.20;;;2.60;;
5718;SDS011;2884;47.734;9.244;2024-02-26T14:10:32;2.60;;;2.40;;
5718;SDS011;2884;47.734;9.244;2024-02-26T14:12:58;3.47;;;2.50;;
5718;SDS011;2884;47.734;9.244;2024-02-26T14:15:24;3.23;;;2.83;;
5718;SDS011;2884;47.734;9.244;2024-02-26T14:17:51;5.37;;;3.10;;
5718;SDS011;2884;47.734;9.244;2024-02-26T14:20:21;3.10;;;2.73;;
5718;SDS011;2884;47.734;9.244;2024-02-26T14:22:48;5.97;;;2.47;;
5718;SDS011;2884;47.734;9.244;2024-02-26T14:25:14;4.73;;;1.67;;
5718;SDS011;2884;47.734;9.244;2024-02-26T14:27:39;4.57;;;2.43;;
5718;SDS011;2884;47.734;9.244;2024-02-26T14:30:05;2.17;;;1.90;;
5718;SDS011;2884;47.734;9.244;2024-02-26T14:32:31;3.57;;;1.73;;
5718;SDS011;2884;47.734;9.244;2024-02-26T14:35:00;3.13;;;2.13;;
5718;SDS011;2884;47.734;9.244;2024-02-26T14:37:26;5.60;;;2.77;;
5718;SDS011;2884;47.734;9.244;2024-02-26T14:39:51;3.93;;;2.57;;
5718;SDS011;2884;47.734;9.244;2024-02-26T14:42:18;2.60;;;2.40;;
5718;SDS011;2884;47.734;9.244;2024-02-26T14:44:44;3.33;;;2.43;;
5718;SDS011;2884;47.734;9.244;2024-02-26T14:47:11;3.93;;;3.53;;
5718;SDS011;2884;47.734;9.244;2024-02-26T14:49:37;8.50;;;3.00;;
5718;SDS011;2884;47.734;9.244;2024-02-26T14:52:03;5.00;;;2.87;;
5718;SDS011;2884;47.734;9.244;2024-02-26T14:54:29;4.53;;;2.50;;
5718;SDS011;2884;47.734;9.244;2024-02-26T14:56:58;9.77;;;2.77;;
5718;SDS011;2884;47.734;9.244;2024-02-26T14:59:24;6.00;;;2.63;;
5718;SDS011;2884;47.734;9.244;2024-02-26T15:01:49;5.73;;;2.50;;
5718;SDS011;2884;47.734;9.244;2024-02-26T15:04:15;3.93;;;3.20;;
5718;SDS011;2884;47.734;9.244;2024-02-26T15:06:41;3.50;;;2.73;;
5718;SDS011;2884;47.734;9.244;2024-02-26T15:09:06;4.93;;;3.20;;
5718;SDS011;2884;47.734;9.244;2024-02-26T15:11:32;4.77;;;3.30;;
5718;SDS011;2884;47.734;9.244;2024-02-26T15:13:58;4.27;;;2.77;;
5718;SDS011;2884;47.734;9.244;2024-02-26T15:16:23;3.57;;;2.80;;
5718;SDS011;2884;47.734;9.244;2024-02-26T15:18:49;6.07;;;2.10;;